createdAt,value
2022-09-22T00:02:18.802Z,17.80
2022-09-22T00:07:21.194Z,18.07
2022-09-22T00:12:23.647Z,18.13
2022-09-22T00:17:25.918Z,17.96
2022-09-22T00:22:28.833Z,18.01
2022-09-22T00:27:31.123Z,17.94
2022-09-22T00:32:33.643Z,17.75
2022-09-22T00:37:36.060Z,18.04
2022-09-22T00:42:38.742Z,17.85
2022-09-22T00:47:45.415Z,17.92
2022-09-22T00:53:09.100Z,17.74
2022-09-22T00:58:19.604Z,17.63
2022-09-22T01:03:27.574Z,17.75
2022-09-22T01:08:34.780Z,17.56
2022-09-22T01:14:04.561Z,17.52
2022-09-22T01:19:44.186Z,17.76
2022-09-22T01:25:07.064Z,17.57
2022-09-22T01:30:22.512Z,17.66
2022-09-22T01:35:52.245Z,17.65
2022-09-22T01:41:45.259Z,17.52
2022-09-22T01:47:14.111Z,17.39
2022-09-22T01:52:27.628Z,17.35
2022-09-22T01:57:32.609Z,17.49
2022-09-22T02:02:58.101Z,17.41
2022-09-22T02:08:05.456Z,17.23
2022-09-22T02:13:07.936Z,17.46
2022-09-22T02:18:18.461Z,17.11
2022-09-22T02:23:21.007Z,17.23
2022-09-22T02:28:24.805Z,17.23
2022-09-22T02:33:28.965Z,17.11
2022-09-22T02:38:40.604Z,17.00
2022-09-22T02:43:50.927Z,17.21
2022-09-22T02:49:03.099Z,17.18
2022-09-22T02:54:06.941Z,17.03
2022-09-22T02:59:12.782Z,16.65
2022-09-22T03:04:15.136Z,17.09
2022-09-22T03:09:18.589Z,16.58
2022-09-22T03:14:20.951Z,17.03
2022-09-22T03:19:23.399Z,17.01
2022-09-22T03:24:25.915Z,16.92
2022-09-22T03:29:28.358Z,16.62
2022-09-22T03:34:30.667Z,16.76
2022-09-22T03:39:33.013Z,16.66
2022-09-22T03:44:35.791Z,16.94
2022-09-22T03:49:38.128Z,16.75
2022-09-22T03:54:40.436Z,16.80
2022-09-22T03:59:43.029Z,16.25
2022-09-22T04:04:45.502Z,15.72
2022-09-22T04:09:47.881Z,16.31
2022-09-22T04:14:50.140Z,16.05
2022-09-22T04:19:52.523Z,16.06
2022-09-22T04:24:54.921Z,15.77
2022-09-22T04:29:57.872Z,15.75
2022-09-22T04:35:00.180Z,15.74
2022-09-22T04:40:02.870Z,15.51
2022-09-22T04:45:07.423Z,15.61
2022-09-22T04:50:10.246Z,15.52
2022-09-22T04:55:16.097Z,15.44
2022-09-22T05:00:19.625Z,15.47
2022-09-22T05:05:22.592Z,15.47
2022-09-22T05:10:31.560Z,15.48
2022-09-22T05:15:35.197Z,15.39
2022-09-22T05:20:39.665Z,15.20
2022-09-22T05:25:43.313Z,14.66
2022-09-22T05:30:45.921Z,15.15
2022-09-22T05:35:48.804Z,14.00
2022-09-22T05:40:51.417Z,15.76
2022-09-22T05:45:58.887Z,15.70
2022-09-22T05:51:02.051Z,14.94
2022-09-22T05:56:04.767Z,15.29
2022-09-22T06:01:07.671Z,15.33
2022-09-22T06:06:13.159Z,15.00
2022-09-22T06:11:15.794Z,15.67
2022-09-22T06:16:21.890Z,16.76
2022-09-22T06:21:25.287Z,16.70
2022-09-22T06:26:27.875Z,16.65
2022-09-22T06:31:30.408Z,16.81
2022-09-22T06:36:32.754Z,17.21
2022-09-22T06:41:35.048Z,17.23
2022-09-22T06:46:38.424Z,17.09
2022-09-22T06:51:44.399Z,17.23
2022-09-22T06:56:46.880Z,16.86
2022-09-22T07:01:49.874Z,17.63
2022-09-22T07:06:52.607Z,17.59
2022-09-22T07:11:55.242Z,17.67
2022-09-22T07:16:57.572Z,17.92
2022-09-22T07:22:00.024Z,18.08
2022-09-22T07:27:04.889Z,18.37
2022-09-22T07:32:07.317Z,18.40
2022-09-22T07:37:11.905Z,18.37
2022-09-22T07:42:14.324Z,18.26
2022-09-22T07:47:39.029Z,18.58
2022-09-22T07:52:41.464Z,18.88
2022-09-22T07:57:43.711Z,19.15
2022-09-22T08:02:54.783Z,19.07
2022-09-22T08:08:01.219Z,19.27
2022-09-22T08:13:05.258Z,19.38
2022-09-22T08:18:10.820Z,19.40
2022-09-22T08:23:13.772Z,19.40
2022-09-22T08:28:17.513Z,19.45
2022-09-22T08:33:20.017Z,19.23
2022-09-22T08:38:23.913Z,19.80
2022-09-22T08:43:31.916Z,18.63
2022-09-22T08:48:52.842Z,19.83
2022-09-22T08:54:02.414Z,19.91
2022-09-22T08:59:19.438Z,20.09
2022-09-22T09:04:43.250Z,20.38
2022-09-22T09:10:17.034Z,20.28
2022-09-22T09:15:44.268Z,20.51
2022-09-22T09:20:48.828Z,20.88
2022-09-22T09:25:55.278Z,21.05
2022-09-22T09:31:08.188Z,20.76
2022-09-22T09:41:24.071Z,21.11
2022-09-22T09:47:12.108Z,21.16
2022-09-22T09:52:15.467Z,20.88
2022-09-22T09:57:19.884Z,20.92
2022-09-22T10:02:35.731Z,21.03
2022-09-22T10:07:44.998Z,21.11
2022-09-22T10:12:47.294Z,21.36
2022-09-22T10:17:49.790Z,20.78
2022-09-22T10:22:53.629Z,20.64
2022-09-22T10:28:05.306Z,21.07
2022-09-22T10:33:21.150Z,21.31
2022-09-22T10:38:27.465Z,21.49
2022-09-22T10:43:38.294Z,21.83
2022-09-22T10:49:01.077Z,21.76
2022-09-22T10:54:29.537Z,21.45
2022-09-22T11:00:09.049Z,21.85
2022-09-22T11:06:07.540Z,22.11
2022-09-22T11:11:41.980Z,22.00
2022-09-22T11:17:13.442Z,22.36
2022-09-22T11:22:35.354Z,22.14
2022-09-22T11:28:04.754Z,22.01
2022-09-22T11:33:16.023Z,22.30
2022-09-22T11:38:40.395Z,22.40
2022-09-22T11:44:06.842Z,22.45
2022-09-22T11:49:41.346Z,22.73
2022-09-22T11:55:13.535Z,22.83
2022-09-22T12:00:21.900Z,22.71
2022-09-22T12:05:52.647Z,23.19
2022-09-22T12:10:59.767Z,22.97
2022-09-22T12:16:26.578Z,23.66
2022-09-22T12:21:44.559Z,23.08
2022-09-22T12:26:48.907Z,22.95
2022-09-22T12:31:56.009Z,23.45
2022-09-22T12:37:20.514Z,23.69
2022-09-22T12:42:27.954Z,23.82
2022-09-22T12:47:39.433Z,24.04
2022-09-22T12:52:41.674Z,24.42
2022-09-22T12:57:49.816Z,24.46
2022-09-22T13:02:52.316Z,24.42
2022-09-22T13:07:56.516Z,23.77
2022-09-22T13:13:04.587Z,24.13
2022-09-22T13:18:29.242Z,23.09
2022-09-22T13:23:31.702Z,23.75
2022-09-22T13:28:34.229Z,23.69
2022-09-22T13:33:46.332Z,24.46
2022-09-22T13:38:56.217Z,24.63
2022-09-22T13:44:08.408Z,24.89
2022-09-22T13:49:17.534Z,24.83
2022-09-22T13:54:23.933Z,24.78
2022-09-22T13:59:35.498Z,25.24
2022-09-22T14:04:38.348Z,25.20
2022-09-22T14:09:41.000Z,25.13
2022-09-22T14:14:43.457Z,25.94
2022-09-22T14:20:09.565Z,26.54
2022-09-22T14:25:20.662Z,26.92
2022-09-22T14:30:30.837Z,26.99
2022-09-22T14:35:38.416Z,27.37
2022-09-22T14:40:54.575Z,27.77
2022-09-22T14:45:58.506Z,28.24
2022-09-22T14:51:09.401Z,28.55
2022-09-22T14:56:23.024Z,27.35
2022-09-22T15:01:52.845Z,28.20
2022-09-22T15:06:57.509Z,27.86
2022-09-22T15:12:02.674Z,27.49
2022-09-22T15:18:04.627Z,26.78
2022-09-22T15:23:34.263Z,27.32
2022-09-22T15:28:38.429Z,27.07
2022-09-22T15:33:41.197Z,26.60
2022-09-22T15:38:43.844Z,27.01
2022-09-22T15:43:46.451Z,26.00
2022-09-22T15:48:48.929Z,25.80
2022-09-22T15:53:52.176Z,26.02
2022-09-22T15:58:56.297Z,25.49
2022-09-22T16:04:00.709Z,25.11
2022-09-22T16:09:06.590Z,24.43
2022-09-22T16:14:09.475Z,22.53
2022-09-22T16:19:11.947Z,22.37
2022-09-22T16:24:14.264Z,22.10
2022-09-22T16:29:17.174Z,21.99
2022-09-22T16:34:19.690Z,21.77
2022-09-22T16:39:22.046Z,21.77
2022-09-22T16:44:24.344Z,21.38
2022-09-22T16:49:27.070Z,21.41
2022-09-22T16:54:29.514Z,21.27
2022-09-22T16:59:31.912Z,21.25
2022-09-22T17:04:34.237Z,20.55
2022-09-22T17:09:37.592Z,20.99
2022-09-22T17:14:44.226Z,20.85
2022-09-22T17:19:48.769Z,20.43
2022-09-22T17:24:55.337Z,19.94
2022-09-22T17:29:58.026Z,20.31
2022-09-22T17:35:00.456Z,19.75
2022-09-22T17:40:06.504Z,20.12
2022-09-22T17:45:15.608Z,19.96
2022-09-22T17:50:39.426Z,19.92
2022-09-22T17:55:45.710Z,19.95
2022-09-22T18:01:03.850Z,19.63
2022-09-22T18:06:21.618Z,19.62
2022-09-22T18:11:29.141Z,18.72
2022-09-22T18:17:01.346Z,19.32
2022-09-22T18:22:12.872Z,18.39
2022-09-22T18:27:44.861Z,18.57
2022-09-22T18:32:48.455Z,18.05
2022-09-22T18:37:54.749Z,18.71
2022-09-22T18:43:04.667Z,19.17
2022-09-22T18:48:09.744Z,18.38
2022-09-22T18:53:37.445Z,18.31
2022-09-22T18:59:18.802Z,18.07
2022-09-22T19:44:54.132Z,18.29
2022-09-22T19:50:03.799Z,17.33
2022-09-22T19:55:24.892Z,18.06
2022-09-22T20:00:40.330Z,17.18
2022-09-22T20:18:15.257Z,17.49
2022-09-22T20:23:09.902Z,15.95
2022-09-22T20:28:12.278Z,16.89
2022-09-22T20:33:21.056Z,16.58
2022-09-22T20:38:23.726Z,16.19
2022-09-22T20:43:26.179Z,16.78
2022-09-22T20:48:28.895Z,16.84
2022-09-22T20:53:34.488Z,16.75
2022-09-22T20:58:42.554Z,16.83
2022-09-22T21:03:45.170Z,15.65
2022-09-22T21:09:06.158Z,16.63
2022-09-22T21:14:08.789Z,16.42
2022-09-22T21:19:13.136Z,16.06
2022-09-22T21:24:15.526Z,16.55
2022-09-22T21:29:18.118Z,16.45
2022-09-22T21:34:20.752Z,16.08
2022-09-22T21:39:23.312Z,16.01
2022-09-22T21:44:25.774Z,16.36
2022-09-22T21:49:28.848Z,16.23
2022-09-22T21:54:31.791Z,16.19
2022-09-22T21:59:34.129Z,15.79
2022-09-22T22:04:36.600Z,15.77
2022-09-22T22:09:39.099Z,15.56
2022-09-22T22:14:45.879Z,15.64
2022-09-22T22:19:48.673Z,15.19
2022-09-22T22:24:51.377Z,15.39
2022-09-22T22:29:54.658Z,15.38
2022-09-22T22:34:59.918Z,15.60
2022-09-22T22:40:02.596Z,15.35
2022-09-22T22:45:05.906Z,14.77
2022-09-22T22:50:09.032Z,15.64
2022-09-22T22:55:11.450Z,15.72
2022-09-22T23:00:13.887Z,15.62
2022-09-22T23:05:16.647Z,15.74
2022-09-22T23:10:19.690Z,14.71
2022-09-22T23:15:22.096Z,15.44
2022-09-22T23:20:25.855Z,15.34
2022-09-22T23:25:28.242Z,15.07
2022-09-22T23:30:30.654Z,14.82
2022-09-22T23:35:33.431Z,15.17
2022-09-22T23:40:36.012Z,14.95
2022-09-22T23:45:38.506Z,14.88
2022-09-22T23:50:44.252Z,14.78
2022-09-22T23:55:46.893Z,14.58
